テヘラン の空港の天気 - METARとTAF

メヘラーバード国際空港(テヘラン) ( OIII / THR ) - イラン テヘラン
飛行場実況気象(Metar)
観測時間01/21 21:30 IRST (01/21 18:00 UTC)
風向・風速静穏 0m/s
視程10km以上
天気現象
なし
気温7℃
湿度45%
気圧1019hPa
METAROIII 211800Z 00000KT CAVOK 07/M04 Q1019 A3010
過去の天気等 Google飛行場航空写真 Wunderground天気予報

過去48時間のMETAR

飛行場予報(TAF)
発表時間: 1/21 20:40 IRST (1/21 17:10 UTC)
予報対象時間: 21日21時 IRST ~ 23日3時 IRST
風向・風速西 3m/s
視程7,000m
なし
22日5時 IRST ~ 22日10時 IRST に一時的に
視程4,000m
天気現象煙霧
TAF OIII 211710Z 2118/2224 27003MPS 7000 NSC
TEMPO 2202/2207 4000 HZ